createdAt,value
2022-09-23T00:02:12.649Z,3.80
2022-09-23T00:04:41.534Z,4.07
2022-09-23T00:07:10.041Z,3.53
2022-09-23T00:09:39.927Z,2.93
2022-09-23T00:12:10.114Z,3.30
2022-09-23T00:14:39.653Z,3.50
2022-09-23T00:17:08.253Z,4.07
2022-09-23T00:19:37.965Z,3.37
2022-09-23T00:22:06.279Z,3.50
2022-09-23T00:24:34.699Z,3.53
2022-09-23T00:27:04.763Z,3.17
2022-09-23T00:29:33.281Z,3.77
2022-09-23T00:32:01.591Z,3.07
2022-09-23T00:34:30.268Z,3.27
2022-09-23T00:36:58.632Z,3.50
2022-09-23T00:39:27.214Z,3.47
2022-09-23T00:41:56.051Z,3.37
2022-09-23T00:44:48.409Z,3.67
2022-09-23T00:47:21.066Z,3.27
2022-09-23T00:49:54.792Z,3.27
2022-09-23T00:52:25.809Z,3.73
2022-09-23T00:54:56.425Z,3.30
2022-09-23T00:57:25.580Z,3.20
2022-09-23T00:59:55.143Z,3.23
2022-09-23T01:02:23.817Z,3.57
2022-09-23T01:04:52.624Z,3.37
2022-09-23T01:07:21.824Z,3.50
2022-09-23T01:09:50.817Z,3.40
2022-09-23T01:12:28.718Z,3.57
2022-09-23T01:15:04.552Z,3.90
2022-09-23T01:17:35.475Z,3.47
2022-09-23T01:20:18.670Z,3.70
2022-09-23T01:22:51.420Z,3.37
2022-09-23T01:25:44.971Z,4.00
2022-09-23T01:28:36.988Z,3.67
2022-09-23T01:31:09.538Z,3.37
2022-09-23T01:33:41.976Z,3.53
2022-09-23T01:36:23.063Z,3.53
2022-09-23T01:38:58.441Z,3.50
2022-09-23T01:41:42.670Z,3.70
2022-09-23T01:44:12.550Z,3.40
2022-09-23T01:46:44.869Z,3.20
2022-09-23T01:49:19.356Z,3.53
2022-09-23T01:51:52.066Z,3.50
2022-09-23T01:54:24.654Z,3.60
2022-09-23T01:56:56.514Z,3.50
2022-09-23T01:59:27.244Z,4.00
2022-09-23T02:02:01.092Z,3.47
2022-09-23T02:04:34.894Z,3.43
2022-09-23T02:07:05.747Z,3.40
2022-09-23T02:09:40.295Z,3.40
2022-09-23T02:12:12.626Z,3.17
2022-09-23T02:14:43.625Z,3.70
2022-09-23T02:17:15.783Z,4.33
2022-09-23T02:19:47.935Z,3.63
2022-09-23T02:22:18.754Z,3.07
2022-09-23T02:24:48.017Z,3.37
2022-09-23T02:27:20.586Z,3.87
2022-09-23T02:29:56.527Z,4.00
2022-09-23T02:32:30.158Z,3.77
2022-09-23T02:35:02.736Z,4.00
2022-09-23T02:37:40.541Z,3.70
2022-09-23T02:40:16.929Z,3.47
2022-09-23T02:42:51.827Z,3.80
2022-09-23T02:45:20.406Z,3.60
2022-09-23T02:47:54.051Z,4.33
2022-09-23T02:50:22.680Z,4.03
2022-09-23T02:52:51.503Z,4.13
2022-09-23T02:55:23.438Z,4.43
2022-09-23T02:57:53.427Z,4.33
2022-09-23T03:00:21.787Z,4.50
2022-09-23T03:03:07.363Z,4.80
2022-09-23T03:05:38.472Z,4.80
2022-09-23T03:08:18.970Z,5.07
2022-09-23T03:10:54.362Z,4.20
2022-09-23T03:13:31.335Z,4.50
2022-09-23T03:16:09.788Z,5.07
2022-09-23T03:18:43.901Z,4.20
2022-09-23T03:21:17.563Z,3.97
2022-09-23T03:23:48.114Z,4.60
2022-09-23T03:26:19.814Z,4.77
2022-09-23T03:28:50.370Z,4.17
2022-09-23T03:31:20.034Z,4.57
2022-09-23T03:33:52.179Z,4.60
2022-09-23T03:36:40.419Z,4.43
2022-09-23T03:39:12.862Z,4.80
2022-09-23T03:41:44.542Z,4.90
2022-09-23T03:44:12.968Z,4.37
2022-09-23T03:46:44.062Z,4.30
2022-09-23T03:49:17.368Z,4.43
2022-09-23T03:51:45.694Z,4.50
2022-09-23T03:54:14.210Z,4.00
2022-09-23T03:56:42.635Z,4.37
2022-09-23T03:59:11.079Z,4.80
2022-09-23T04:01:39.499Z,3.80
2022-09-23T04:04:08.195Z,4.10
2022-09-23T04:06:37.602Z,4.20
2022-09-23T04:09:06.042Z,4.07
2022-09-23T04:11:34.487Z,4.33
2022-09-23T04:14:03.099Z,4.50
2022-09-23T04:16:31.382Z,5.17
2022-09-23T04:18:59.846Z,4.70
2022-09-23T04:21:30.252Z,3.77
2022-09-23T04:23:59.986Z,4.40
2022-09-23T04:26:28.355Z,4.37
2022-09-23T04:28:56.816Z,4.70
2022-09-23T04:31:25.289Z,4.17
2022-09-23T04:33:54.814Z,3.80
2022-09-23T04:36:23.207Z,4.63
2022-09-23T04:38:51.869Z,4.43
2022-09-23T04:41:21.434Z,4.87
2022-09-23T04:43:49.818Z,4.50
2022-09-23T04:46:18.634Z,4.60
2022-09-23T04:48:46.956Z,4.13
2022-09-23T04:51:17.019Z,4.00
2022-09-23T04:53:46.482Z,4.57
2022-09-23T04:56:18.243Z,3.80
2022-09-23T04:58:48.064Z,5.17
2022-09-23T05:01:17.851Z,5.73
2022-09-23T05:03:46.790Z,4.73
2022-09-23T05:06:15.807Z,4.40
2022-09-23T05:08:48.595Z,4.13
2022-09-23T05:11:17.977Z,5.20
2022-09-23T05:13:48.817Z,4.37
2022-09-23T05:16:17.436Z,5.10
2022-09-23T05:18:46.392Z,5.23
2022-09-23T05:21:15.683Z,4.97
2022-09-23T05:23:48.414Z,4.40
2022-09-23T05:26:16.923Z,4.53
2022-09-23T05:28:45.266Z,4.03
2022-09-23T05:31:20.086Z,4.13
2022-09-23T05:33:51.771Z,4.60
2022-09-23T05:36:20.749Z,4.50
2022-09-23T05:38:50.034Z,4.53
2022-09-23T05:41:20.120Z,4.50
2022-09-23T05:43:48.571Z,4.93
2022-09-23T05:46:19.348Z,3.80
2022-09-23T05:48:48.051Z,4.50
2022-09-23T05:51:17.396Z,4.67
2022-09-23T05:53:46.147Z,4.57
2022-09-23T05:56:14.793Z,4.20
2022-09-23T05:58:43.292Z,4.90
2022-09-23T06:01:12.524Z,4.50
2022-09-23T06:03:42.604Z,4.17
2022-09-23T06:06:14.558Z,4.50
2022-09-23T06:08:43.071Z,4.07
2022-09-23T06:11:12.352Z,4.57
2022-09-23T06:13:40.986Z,4.77
2022-09-23T06:16:10.853Z,4.77
2022-09-23T06:18:42.374Z,5.00
2022-09-23T06:21:11.932Z,4.77
2022-09-23T06:23:41.785Z,4.60
2022-09-23T06:26:11.327Z,5.10
2022-09-23T06:28:40.435Z,5.40
2022-09-23T06:31:13.519Z,5.03
2022-09-23T06:33:44.913Z,5.13
2022-09-23T06:36:26.640Z,4.60
2022-09-23T06:38:59.211Z,4.87
2022-09-23T06:41:27.529Z,5.03
2022-09-23T06:43:55.850Z,5.40
2022-09-23T06:46:24.247Z,5.20
2022-09-23T06:48:53.764Z,5.47
2022-09-23T06:51:22.189Z,5.60
2022-09-23T06:53:50.709Z,5.20
2022-09-23T06:56:19.978Z,5.00
2022-09-23T06:58:48.342Z,5.53
2022-09-23T07:01:17.896Z,5.67
2022-09-23T07:03:47.287Z,5.33
2022-09-23T07:06:17.255Z,5.77
2022-09-23T07:08:46.880Z,6.10
2022-09-23T07:11:16.352Z,5.33
2022-09-23T07:13:44.723Z,5.87
2022-09-23T07:16:13.052Z,5.20
2022-09-23T07:18:41.376Z,5.93
2022-09-23T07:21:13.157Z,6.30
2022-09-23T07:23:42.834Z,5.90
2022-09-23T07:26:11.135Z,5.70
2022-09-23T07:28:40.189Z,6.07
2022-09-23T07:31:09.870Z,5.53
2022-09-23T07:33:39.990Z,6.07
2022-09-23T07:36:10.458Z,6.53
2022-09-23T07:38:42.939Z,6.43
2022-09-23T07:41:16.931Z,6.47
2022-09-23T07:43:45.361Z,7.20
2022-09-23T07:46:16.608Z,6.03
2022-09-23T07:48:45.966Z,6.37
2022-09-23T07:51:18.339Z,6.97
2022-09-23T07:53:49.352Z,7.00
2022-09-23T07:56:19.788Z,6.80
2022-09-23T07:59:00.010Z,7.13
2022-09-23T08:01:31.485Z,7.03
2022-09-23T08:04:00.508Z,7.67
2022-09-23T08:06:28.811Z,7.50
2022-09-23T08:08:59.167Z,8.13
2022-09-23T08:11:31.322Z,7.20
2022-09-23T08:13:59.702Z,7.80
2022-09-23T08:16:28.331Z,7.80
2022-09-23T08:18:56.691Z,7.73
2022-09-23T08:21:25.003Z,7.80
2022-09-23T08:23:53.290Z,7.30
2022-09-23T08:26:22.560Z,8.03
2022-09-23T08:28:54.526Z,7.30
2022-09-23T08:31:23.059Z,8.07
2022-09-23T08:33:56.544Z,8.30
2022-09-23T08:36:25.410Z,8.40
2022-09-23T08:38:54.377Z,9.17
2022-09-23T08:41:27.843Z,8.93
2022-09-23T08:44:02.458Z,8.65
2022-09-23T08:46:36.261Z,8.65
2022-09-23T08:49:07.666Z,9.05
2022-09-23T08:51:42.481Z,8.00
2022-09-23T08:54:11.544Z,8.43
2022-09-23T08:56:41.004Z,7.80
2022-09-23T08:59:15.979Z,8.43
2022-09-23T09:01:46.112Z,10.38
2022-09-23T09:04:22.370Z,8.55
2022-09-23T09:06:55.897Z,9.40
2022-09-23T09:09:37.498Z,8.48
2022-09-23T09:12:15.487Z,9.43
2022-09-23T09:14:52.091Z,8.68
2022-09-23T09:17:31.819Z,8.68
2022-09-23T09:20:08.816Z,8.00
2022-09-23T09:22:48.040Z,8.80
2022-09-23T09:25:35.170Z,8.68
2022-09-23T09:28:05.676Z,9.35
2022-09-23T09:30:36.296Z,7.45
2022-09-23T09:33:07.908Z,9.13
2022-09-23T09:35:41.343Z,7.65
2022-09-23T09:38:09.925Z,8.52
2022-09-23T09:40:46.250Z,9.70
2022-09-23T09:43:23.492Z,8.23
2022-09-23T09:46:04.994Z,7.88
2022-09-23T09:48:39.444Z,7.53
2022-09-23T09:51:24.838Z,8.82
2022-09-23T09:53:53.641Z,7.68
2022-09-23T09:56:27.354Z,7.90
2022-09-23T09:58:57.417Z,7.68
2022-09-23T10:01:29.741Z,9.10
2022-09-23T10:03:59.710Z,7.70
2022-09-23T10:06:29.513Z,8.77
2022-09-23T10:09:22.141Z,8.20
2022-09-23T10:12:11.203Z,7.13
2022-09-23T10:14:39.472Z,9.02
2022-09-23T10:17:15.860Z,9.52
2022-09-23T10:19:48.297Z,8.30
2022-09-23T10:22:23.315Z,9.43
2022-09-23T10:24:54.192Z,8.93
2022-09-23T10:27:31.329Z,8.40
2022-09-23T10:30:01.642Z,9.30
2022-09-23T10:32:33.797Z,8.55
2022-09-23T10:35:14.794Z,8.90
2022-09-23T10:37:46.088Z,8.63
2022-09-23T10:40:37.991Z,9.10
2022-09-23T10:43:41.045Z,8.02
2022-09-23T10:46:31.647Z,8.02
2022-09-23T10:49:31.098Z,7.22
2022-09-23T10:52:18.253Z,7.60
2022-09-23T10:55:00.517Z,8.15
2022-09-23T10:57:44.882Z,6.97
2022-09-23T11:00:23.401Z,6.85
2022-09-23T11:03:32.215Z,7.68
2022-09-23T11:06:14.077Z,6.95
2022-09-23T11:08:55.599Z,7.70
2022-09-23T11:11:35.275Z,7.18
2022-09-23T11:14:22.805Z,7.43
2022-09-23T11:17:08.143Z,7.13
2022-09-23T11:20:12.438Z,7.93
2022-09-23T11:23:05.741Z,7.97
2022-09-23T11:25:43.325Z,6.65
2022-09-23T11:28:38.316Z,7.32
2022-09-23T11:31:19.478Z,7.85
2022-09-23T11:34:01.675Z,8.07
2022-09-23T11:36:36.537Z,6.70
2022-09-23T11:39:14.009Z,7.22
2022-09-23T11:41:44.377Z,8.93
2022-09-23T11:44:17.108Z,9.20
2022-09-23T11:46:49.801Z,8.80
2022-09-23T11:49:27.741Z,8.00
2022-09-23T11:52:04.081Z,6.97
2022-09-23T11:54:38.529Z,8.43
2022-09-23T11:57:12.930Z,7.20
2022-09-23T11:59:46.244Z,7.22
2022-09-23T12:02:23.748Z,8.27
2022-09-23T12:05:01.524Z,9.95
2022-09-23T12:07:40.620Z,8.63
2022-09-23T12:10:11.868Z,8.77
2022-09-23T12:12:48.888Z,8.00
2022-09-23T12:15:27.911Z,8.30
2022-09-23T12:18:23.035Z,8.95
2022-09-23T12:21:39.158Z,8.07
2022-09-23T12:24:27.690Z,8.32
2022-09-23T12:27:01.086Z,8.25
2022-09-23T12:29:32.702Z,8.65
2022-09-23T12:32:01.358Z,8.55
2022-09-23T12:34:31.717Z,9.55
2022-09-23T12:37:04.814Z,9.95
2022-09-23T12:39:37.313Z,10.73
2022-09-23T12:42:16.672Z,9.45
2022-09-23T12:44:49.090Z,10.95
2022-09-23T12:47:39.520Z,8.98
2022-09-23T12:50:44.944Z,8.55
2022-09-23T12:53:53.081Z,8.63
2022-09-23T12:56:23.606Z,9.48
2022-09-23T12:59:25.241Z,8.32
2022-09-23T13:01:53.917Z,8.38
2022-09-23T13:05:01.913Z,9.07
2022-09-23T13:07:34.072Z,8.30
2022-09-23T13:10:09.783Z,10.40
2022-09-23T13:12:41.199Z,9.90
2022-09-23T13:15:24.735Z,9.98
2022-09-23T13:17:52.839Z,10.05
2022-09-23T13:20:40.515Z,10.68
2022-09-23T13:23:23.191Z,10.27
2022-09-23T13:25:53.552Z,11.77
2022-09-23T13:28:36.878Z,12.20
2022-09-23T13:31:08.002Z,10.20
2022-09-23T13:33:43.248Z,11.60
2022-09-23T13:36:16.397Z,9.55
2022-09-23T13:38:46.640Z,10.63
2022-09-23T13:41:17.713Z,10.60
2022-09-23T13:43:49.222Z,13.35
2022-09-23T13:46:22.059Z,10.45
2022-09-23T13:48:55.267Z,8.88
2022-09-23T13:51:27.397Z,9.98
2022-09-23T13:53:57.778Z,8.02
2022-09-23T13:56:27.290Z,10.35
2022-09-23T13:58:56.690Z,7.63
2022-09-23T14:01:33.095Z,7.22
2022-09-23T14:04:02.218Z,7.95
2022-09-23T14:06:31.729Z,8.18
2022-09-23T14:09:02.506Z,7.95
2022-09-23T14:11:33.143Z,7.45
2022-09-23T14:14:07.664Z,7.97
2022-09-23T14:16:41.179Z,7.22
2022-09-23T14:19:14.854Z,8.48
2022-09-23T14:21:43.180Z,7.50
2022-09-23T14:24:19.181Z,7.47
2022-09-23T14:26:49.606Z,6.85
2022-09-23T14:29:20.330Z,8.20
2022-09-23T14:31:57.796Z,7.80
2022-09-23T14:34:46.642Z,8.52
2022-09-23T14:37:43.980Z,7.60
2022-09-23T14:40:15.778Z,6.63
2022-09-23T14:42:47.573Z,7.40
2022-09-23T14:45:19.763Z,7.47
2022-09-23T14:47:51.978Z,8.35
2022-09-23T14:50:39.675Z,7.18
2022-09-23T14:53:36.257Z,7.72
2022-09-23T14:56:14.575Z,7.90
2022-09-23T14:58:51.998Z,7.55
2022-09-23T15:01:37.090Z,7.95
2022-09-23T15:04:18.346Z,7.70
2022-09-23T15:06:50.860Z,8.45
2022-09-23T15:09:24.358Z,7.85
2022-09-23T15:11:54.182Z,8.07
2022-09-23T15:14:37.160Z,8.93
2022-09-23T15:17:14.492Z,7.38
2022-09-23T15:19:43.981Z,7.35
2022-09-23T15:22:12.980Z,8.45
2022-09-23T15:24:46.462Z,7.38
2022-09-23T15:27:30.877Z,8.35
2022-09-23T15:30:17.182Z,8.07
2022-09-23T15:32:45.973Z,7.25
2022-09-23T15:35:18.705Z,8.52
2022-09-23T15:37:49.094Z,7.60
2022-09-23T15:40:22.692Z,8.13
2022-09-23T15:42:52.671Z,7.57
2022-09-23T15:45:27.195Z,7.22
2022-09-23T15:47:56.297Z,7.07
2022-09-23T15:50:25.774Z,8.45
2022-09-23T15:52:54.185Z,8.32
2022-09-23T15:55:23.618Z,6.68
2022-09-23T15:57:51.905Z,7.55
2022-09-23T16:00:20.696Z,7.20
2022-09-23T16:02:50.408Z,7.57
2022-09-23T16:05:23.328Z,8.30
2022-09-23T16:07:53.481Z,8.63
2022-09-23T16:10:23.458Z,6.93
2022-09-23T16:12:54.908Z,7.00
2022-09-23T16:15:24.703Z,7.47
2022-09-23T16:17:52.836Z,8.07
2022-09-23T16:20:20.907Z,8.10
2022-09-23T16:22:57.302Z,7.00
2022-09-23T16:25:28.241Z,7.22
2022-09-23T16:27:56.546Z,8.05
2022-09-23T16:30:25.181Z,7.47
2022-09-23T16:32:53.264Z,7.32
2022-09-23T16:35:22.053Z,9.20
2022-09-23T16:37:50.813Z,7.57
2022-09-23T16:40:22.087Z,8.65
2022-09-23T16:42:52.110Z,7.47
2022-09-23T16:45:23.096Z,7.07
2022-09-23T16:47:52.914Z,7.22
2022-09-23T16:50:23.839Z,7.30
2022-09-23T16:52:54.749Z,7.15
2022-09-23T16:55:26.175Z,7.47
2022-09-23T16:57:55.066Z,7.88
2022-09-23T17:00:40.586Z,8.00
2022-09-23T17:03:26.447Z,5.72
2022-09-23T17:05:55.895Z,6.35
2022-09-23T17:08:23.871Z,6.55
2022-09-23T17:10:59.363Z,6.82
2022-09-23T17:13:28.094Z,6.63
2022-09-23T17:15:56.434Z,6.78
2022-09-23T17:18:24.633Z,7.45
2022-09-23T17:21:03.913Z,7.40
2022-09-23T17:23:33.393Z,6.80
2022-09-23T17:26:05.463Z,6.30
2022-09-23T17:28:33.530Z,6.32
2022-09-23T17:31:02.982Z,5.88
2022-09-23T17:33:33.092Z,6.78
2022-09-23T17:36:01.608Z,6.78
2022-09-23T17:38:29.839Z,6.13
2022-09-23T17:41:02.087Z,7.50
2022-09-23T17:43:33.348Z,6.72
2022-09-23T17:46:06.981Z,6.95
2022-09-23T17:48:36.433Z,6.45
2022-09-23T17:51:06.815Z,6.38
2022-09-23T17:53:36.972Z,7.60
2022-09-23T17:56:06.907Z,7.60
2022-09-23T17:58:37.998Z,6.72
2022-09-23T18:01:09.444Z,6.68
2022-09-23T18:03:37.790Z,6.90
2022-09-23T18:06:13.586Z,6.78
2022-09-23T18:08:42.833Z,6.70
2022-09-23T18:11:15.683Z,7.22
2022-09-23T18:13:49.568Z,7.15
2022-09-23T18:16:17.976Z,7.90
2022-09-23T18:18:46.391Z,6.75
2022-09-23T18:21:14.695Z,6.53
2022-09-23T18:23:42.703Z,6.25
2022-09-23T18:26:15.496Z,6.88
2022-09-23T18:28:45.442Z,6.88
2022-09-23T18:31:13.642Z,7.43
2022-09-23T18:33:42.071Z,7.03
2022-09-23T18:36:10.902Z,6.55
2022-09-23T18:38:39.879Z,6.32
2022-09-23T18:41:09.274Z,7.00
2022-09-23T18:43:42.191Z,6.90
2022-09-23T18:46:15.635Z,6.70
2022-09-23T18:49:02.268Z,7.43
2022-09-23T18:51:32.164Z,6.75
2022-09-23T18:54:02.019Z,7.07
2022-09-23T18:56:33.540Z,7.80
2022-09-23T18:59:02.385Z,6.55
2022-09-23T19:01:31.915Z,6.97
2022-09-23T19:04:02.230Z,6.57
2022-09-23T19:06:32.389Z,7.10
2022-09-23T19:09:00.412Z,7.63
2022-09-23T19:11:28.813Z,7.78
2022-09-23T19:13:58.631Z,7.18
2022-09-23T19:16:27.205Z,7.28
2022-09-23T19:18:56.633Z,8.03
2022-09-23T19:21:24.711Z,7.32
2022-09-23T19:23:55.071Z,8.00
2022-09-23T19:26:24.912Z,7.93
2022-09-23T19:28:54.597Z,7.20
2022-09-23T19:31:24.665Z,7.05
2022-09-23T19:33:57.180Z,8.52
2022-09-23T19:36:31.756Z,8.68
2022-09-23T19:39:03.257Z,7.75
2022-09-23T19:41:33.342Z,7.90
2022-09-23T19:44:03.581Z,8.68
2022-09-23T19:46:32.514Z,7.97
2022-09-23T19:49:01.584Z,7.57
2022-09-23T19:51:33.879Z,8.40
2022-09-23T19:54:02.343Z,8.50
2022-09-23T19:56:31.917Z,8.15
2022-09-23T19:59:00.725Z,7.80
2022-09-23T20:01:30.638Z,7.45
2022-09-23T20:03:59.278Z,8.43
2022-09-23T20:06:32.252Z,7.70
2022-09-23T20:09:00.845Z,8.90
2022-09-23T20:11:29.945Z,7.57
2022-09-23T20:14:01.231Z,8.02
2022-09-23T20:16:32.370Z,8.88
2022-09-23T20:19:01.025Z,7.90
2022-09-23T20:21:31.453Z,9.27
2022-09-23T20:23:59.575Z,8.95
2022-09-23T20:26:45.298Z,8.38
2022-09-23T20:29:13.559Z,8.97
2022-09-23T20:31:41.980Z,8.15
2022-09-23T20:34:11.145Z,7.72
2022-09-23T20:36:42.527Z,7.90
2022-09-23T20:39:11.570Z,6.93
2022-09-23T20:41:40.314Z,7.83
2022-09-23T20:44:13.082Z,8.83
2022-09-23T20:46:47.458Z,8.00
2022-09-23T20:49:16.570Z,9.30
2022-09-23T20:51:47.541Z,8.90
2022-09-23T20:54:16.398Z,8.87
2022-09-23T20:56:44.598Z,8.60
2022-09-23T20:59:14.879Z,8.20
2022-09-23T21:01:43.319Z,8.23
2022-09-23T21:04:11.500Z,8.77
2022-09-23T21:06:40.222Z,8.67
2022-09-23T21:09:09.657Z,8.27
2022-09-23T21:11:38.234Z,8.80
2022-09-23T21:14:06.669Z,8.80
2022-09-23T21:16:34.810Z,8.73
2022-09-23T21:19:04.060Z,9.00
2022-09-23T21:21:32.401Z,9.03
2022-09-23T21:24:23.773Z,8.87
2022-09-23T21:26:51.327Z,8.33
2022-09-23T21:29:19.643Z,7.93
2022-09-23T21:31:49.592Z,9.50
2022-09-23T21:34:17.854Z,8.80
2022-09-23T21:36:47.930Z,8.43
2022-09-23T21:39:16.192Z,8.27
2022-09-23T21:41:44.524Z,8.57
2022-09-23T21:44:14.013Z,8.60
2022-09-23T21:46:42.417Z,9.03
2022-09-23T21:49:10.569Z,9.73
2022-09-23T21:51:41.572Z,8.70
2022-09-23T21:54:13.959Z,8.83
2022-09-23T21:56:42.072Z,8.77
2022-09-23T21:59:10.451Z,8.73
2022-09-23T22:01:43.688Z,8.83
2022-09-23T22:04:16.163Z,9.43
2022-09-23T22:06:44.842Z,9.10
2022-09-23T22:09:15.180Z,9.33
2022-09-23T22:12:01.844Z,8.57
2022-09-23T22:14:30.575Z,8.83
2022-09-23T22:17:02.334Z,9.10
2022-09-23T22:19:34.741Z,9.97
2022-09-23T22:22:03.392Z,8.40
2022-09-23T22:24:31.733Z,8.57
2022-09-23T22:27:00.083Z,7.70
2022-09-23T22:29:46.236Z,8.47
2022-09-23T22:32:33.121Z,8.70
2022-09-23T22:35:01.655Z,7.60
2022-09-23T22:37:32.837Z,7.67
2022-09-23T22:40:01.725Z,7.57
2022-09-23T22:42:30.925Z,7.20
2022-09-23T22:44:59.007Z,8.50
2022-09-23T22:47:28.411Z,8.07
2022-09-23T22:49:56.385Z,7.50
2022-09-23T22:52:25.448Z,8.20
2022-09-23T22:54:54.017Z,9.00
2022-09-23T22:57:22.321Z,8.83
2022-09-23T22:59:50.608Z,8.67
2022-09-23T23:02:20.860Z,8.43
2022-09-23T23:04:51.509Z,7.40
2022-09-23T23:07:21.590Z,8.23
2022-09-23T23:09:51.371Z,7.80
2022-09-23T23:12:20.387Z,8.00
2022-09-23T23:14:48.982Z,9.00
2022-09-23T23:17:17.394Z,7.93
2022-09-23T23:19:45.736Z,9.27
2022-09-23T23:22:15.276Z,8.37
2022-09-23T23:24:43.653Z,8.47
2022-09-23T23:27:12.497Z,8.50
2022-09-23T23:29:40.775Z,8.30
2022-09-23T23:32:09.846Z,8.47
2022-09-23T23:34:38.218Z,8.37
2022-09-23T23:37:06.584Z,7.90
2022-09-23T23:39:36.044Z,7.93
2022-09-23T23:42:04.874Z,8.47
2022-09-23T23:44:34.499Z,8.77
2022-09-23T23:47:03.143Z,8.93
2022-09-23T23:49:31.732Z,8.13
2022-09-23T23:51:59.768Z,8.37
2022-09-23T23:54:28.158Z,8.90
2022-09-23T23:56:57.585Z,8.33
2022-09-23T23:59:28.215Z,8.60
